KGSB/GSB METAR and TAF weather

Enter ICAO airport designator
Station Type Date Time Source
KGSB METAR 2021/08/02 03:26 UTC NOAA

KGSB 020326Z AUTO 20003KT 6SM BR BKN002 23/22 A2988 RMK AO2 SLP120 $


Station Type Date Time Source
KGSB Decoded METAR 2021/08/02 03:26 UTC NOAA

Seymour-Johnson Air Force Base, NC, United States (KGSB) 35-20N 077-58W
Aug 01, 2021 - 11:26 PM EDT / 2021.08.02 0326 UTC
Wind: from the SSW (200 degrees) at 3 MPH (3 KT):0
Visibility: 6 mile(s):0
Sky conditions: mostly cloudy
Weather: mist
Temperature: 73 F (23 C)
Dew Point: 71 F (22 C)
Relative Humidity: 94%
Pressure (altimeter): 29.88 in. Hg (1011 hPa)
ob: KGSB 020326Z AUTO 20003KT 6SM BR BKN002 23/22 A2988 RMK AO2 SLP120
cycle: 3

Station Type Date Time Source
KGSB TAF 2021/08/01 20:27 UTC NOAA

TAF KGSB 012000Z 0120/0302 34007KT 8000 -RA VCTS BKN030CB QNH2973INS
TEMPO 0120/0201 30020G35KT 4800 -TSRA
BECMG 0201/0202 01007KT 9999 NSW BKN040 QNH2981INS
TEMPO 0218/0222 05010G15KT 8000 -TSRA BKN030CB
BECMG 0223/0224 01007KT 9999 BKN040 QNH2998INS TX30/0218Z TN23/0211Z LAST NO
AMDS AFT 0120 NEXT 0204

Example: see airport list